Spabunker 51 — ECNA — position and weather

sailwx.info

Track history (hours):
 
Tides and Currents Weather Stations Pressure Air Temp Water Temp Dewpoint Dewpoint Depression Visibility Wind Speed Wind Dir Waves Ship Positions

Spabunker 51

Last reported at 2015-Jan-25 17:33 UTC. Time now 2015-Jan-25 18:24 UTC.
Position N 36°05' W 005°24'.

Length 84 m; draft 5.8 m.

Type: Ship (hazmat cat A). MMSI: 224322240.

Date/timePositionNaut miles runAvg speedWind from/ knotsBaromVisibWave heightAir tempDewpointWater temp
2015-Jan-25 17:33N 36°05' W 005°24'2 1.9
2015-Jan-25 16:33N 36°07' W 005°24'4 3.6
2015-Jan-25 15:33N 36°11' W 005°24'0 0.0
2015-Jan-25 14:33N 36°11' W 005°24'0 0.0
2015-Jan-25 13:33N 36°11' W 005°24'0 0.0
2015-Jan-25 12:32N 36°11' W 005°24'0 0.0
2015-Jan-25 11:33N 36°11' W 005°24'0 0.0
2015-Jan-25 10:33N 36°11' W 005°24'0 0.0
2015-Jan-25 09:33N 36°11' W 005°24'0 0.0
2015-Jan-25 08:33N 36°11' W 005°24'0 0.0
2015-Jan-25 07:31N 36°11' W 005°24'0 0.0
2015-Jan-25 06:29N 36°11' W 005°24'0 0.0
2015-Jan-25 05:33N 36°11' W 005°24'0 0.0
2015-Jan-25 04:33N 36°11' W 005°24'0 0.0
2015-Jan-25 03:33N 36°11' W 005°24'1 0.6
2015-Jan-25 02:33N 36°10' W 005°23'0 0.0
2015-Jan-24 22:25N 36°10' W 005°23'0 0.0
2015-Jan-24 21:33N 36°10' W 005°23'0 0.1
2015-Jan-24 20:30N 36°10' W 005°23'0 0.1
2015-Jan-24 19:25N 36°10' W 005°23'1 0.5
2015-Jan-24 18:08N 36°10' W 005°24'4 7.5
2015-Jan-24 17:33N 36°06' W 005°24'0 0.1
2015-Jan-24 16:33N 36°06' W 005°24'0 0.0
2015-Jan-24 15:33N 36°06' W 005°24'0 0.0
2015-Jan-24 14:33N 36°06' W 005°24'0 0.0
2015-Jan-24 13:33N 36°06' W 005°24'0 0.0
2015-Jan-24 12:33N 36°06' W 005°24'0 0.0
2015-Jan-24 11:33N 36°06' W 005°24'0 0.2
2015-Jan-24 10:33N 36°05' W 005°24'0 0.0
2015-Jan-24 09:33N 36°05' W 005°24'1 0.8
2015-Jan-24 08:32N 36°05' W 005°25'0 0.0
2015-Jan-24 07:32N 36°05' W 005°25'0 0.0
2015-Jan-24 06:33N 36°05' W 005°25'0 0.2
2015-Jan-24 05:32N 36°05' W 005°25'0 0.0
2015-Jan-24 04:19N 36°05' W 005°25'0 0.0
2015-Jan-24 03:10N 36°05' W 005°25'0 0.1
2015-Jan-24 02:30N 36°05' W 005°25'0 0.1
2015-Jan-24 00:29N 36°05' W 005°25'0 0.0
2015-Jan-23 23:21N 36°05' W 005°25'0 0.0
2015-Jan-23 22:21N 36°05' W 005°25'0 0.0
2015-Jan-23 21:28N 36°05' W 005°25'2 2.7
2015-Jan-23 20:33N 36°08' W 005°25'2 0.3
2015-Jan-23 15:31N 36°09' W 005°25'4 4.3
2015-Jan-23 14:32N 36°05' W 005°25'0 0.1
2015-Jan-23 13:20N 36°05' W 005°25'0 0.0
2015-Jan-23 11:28N 36°05' W 005°25'0 0.0
2015-Jan-23 10:28N 36°05' W 005°25'0 0.2
2015-Jan-23 09:33N 36°05' W 005°25'3 2.9
2015-Jan-23 08:21N 36°09' W 005°26'0 0.0
2015-Jan-23 07:30N 36°09' W 005°26'3 2.6
2015-Jan-23 06:32N 36°06' W 005°25'0 0.2
2015-Jan-23 05:33N 36°06' W 005°25'0 0.0
2015-Jan-23 04:33N 36°06' W 005°25'0 0.0
2015-Jan-23 03:32N 36°06' W 005°25'0 0.1
2015-Jan-23 02:33N 36°06' W 005°25'2 1.8
2015-Jan-23 01:33N 36°08' W 005°25'1 0.1
2015-Jan-22 19:24N 36°09' W 005°26'0 0.0
2015-Jan-22 12:12N 36°09' W 005°26'0 0.0
2015-Jan-22 11:32N 36°09' W 005°26'0 0.0
2015-Jan-22 10:12N 36°09' W 005°26'0 0.0
2015-Jan-22 09:33N 36°09' W 005°26'0 0.0
2015-Jan-22 08:29N 36°09' W 005°26'0 0.0
2015-Jan-22 06:33N 36°09' W 005°26'0 0.0
2015-Jan-22 05:33N 36°09' W 005°26'3 3.0
2015-Jan-22 04:33N 36°06' W 005°24'0 0.1
2015-Jan-22 03:33N 36°06' W 005°24'0 0.1
2015-Jan-22 02:33N 36°06' W 005°24'0 0.1
2015-Jan-22 01:33N 36°06' W 005°24'0 0.1
2015-Jan-22 00:32N 36°06' W 005°24'0 0.1
2015-Jan-21 23:33N 36°06' W 005°24'0 0.1
2015-Jan-21 22:50N 36°06' W 005°24'0 0.1
2015-Jan-21 22:46N 36°06' W 005°24'0 0.1
2015-Jan-21 22:33N 36°06' W 005°24'0 0.0
2015-Jan-21 21:33N 36°06' W 005°24'2 1.6
2015-Jan-21 20:30N 36°07' W 005°25'2 0.4
2015-Jan-21 16:16N 36°09' W 005°26'0 0.0
2015-Jan-21 14:32N 36°09' W 005°26'0 0.0
2015-Jan-21 09:25N 36°09' W 005°26'0 0.0
2015-Jan-21 08:21N 36°09' W 005°26'2 2.0
2015-Jan-21 07:08N 36°11' W 005°24'0 0.0
2015-Jan-21 06:32N 36°11' W 005°24'0 0.0
2015-Jan-21 05:27N 36°11' W 005°24'0 0.0
2015-Jan-21 04:32N 36°11' W 005°24'0 0.0
2015-Jan-21 03:33N 36°11' W 005°24'0 0.0
2015-Jan-21 02:33N 36°11' W 005°24'0 0.0
2015-Jan-21 01:32N 36°11' W 005°24'0 0.4
2015-Jan-21 00:33N 36°10' W 005°24'4 1.7
2015-Jan-20 22:32N 36°07' W 005°24'0 0.0
2015-Jan-20 21:08N 36°07' W 005°24'2 0.5
2015-Jan-20 17:07N 36°05' W 005°25'0 0.0
2015-Jan-20 16:32N 36°05' W 005°25'0 0.2
2015-Jan-20 15:33N 36°05' W 005°25'0 0.1
2015-Jan-20 14:33N 36°05' W 005°25'0 0.0
2015-Jan-20 13:31N 36°05' W 005°25'0 0.0
2015-Jan-20 12:32N 36°05' W 005°25'0 0.1
2015-Jan-20 11:33N 36°05' W 005°25'0 0.1
2015-Jan-20 10:25N 36°05' W 005°25'6 1.4
2015-Jan-20 06:30N 36°11' W 005°24'0 0.0
2015-Jan-20 05:28N 36°11' W 005°24'0 0.0
2015-Jan-20 04:11N 36°11' W 005°24'0 0.0
2015-Jan-20 03:13N 36°11' W 005°24'0 0.0
2015-Jan-20 02:20N 36°11' W 005°24'0 0.0
2015-Jan-20 01:26N 36°11' W 005°24'0 0.0
2015-Jan-20 00:21N 36°11' W 005°24'0 0.0
2015-Jan-19 23:30N 36°11' W 005°24'0 0.0
2015-Jan-19 22:33N 36°11' W 005°24'0 0.0
2015-Jan-19 21:33N 36°11' W 005°24'0 0.0
2015-Jan-19 20:32N 36°11' W 005°24'0 0.0
2015-Jan-19 19:32N 36°11' W 005°24'2 1.3
2015-Jan-19 17:33N 36°09' W 005°26'0 0.0
2015-Jan-19 16:33N 36°09' W 005°26'  
2015-Jan-16 03:32N 36°09' W 005°26'0 0.0
2015-Jan-16 01:15N 36°09' W 005°26'1 0.3
2015-Jan-15 23:33N 36°08' W 005°26'0 0.0
2015-Jan-15 22:33N 36°08' W 005°26'0 0.5
2015-Jan-15 21:33N 36°09' W 005°26'0 0.0
2015-Jan-15 20:33N 36°09' W 005°26'  
Track history (hours):
 
Tides and Currents Weather Stations Pressure Air Temp Water Temp Dewpoint Dewpoint Depression Visibility Wind Speed Wind Dir Waves Ship Positions

Spabunker 51

Last reported at 2015-Jan-25 17:33 UTC. Time now 2015-Jan-25 18:24 UTC.
Position N 36°05' W 005°24'.

Length 84 m; draft 5.8 m.

Type: Ship (hazmat cat A). MMSI: 224322240.

Date/timePositionNaut miles runAvg speedWind from/ knotsBaromVisibWave heightAir tempDewpointWater temp
2015-Jan-25 17:33N 36°05' W 005°24'2 1.9
2015-Jan-25 16:33N 36°07' W 005°24'4 3.6
2015-Jan-25 15:33N 36°11' W 005°24'0 0.0
2015-Jan-25 14:33N 36°11' W 005°24'0 0.0
2015-Jan-25 13:33N 36°11' W 005°24'0 0.0
2015-Jan-25 12:32N 36°11' W 005°24'0 0.0
2015-Jan-25 11:33N 36°11' W 005°24'0 0.0
2015-Jan-25 10:33N 36°11' W 005°24'0 0.0
2015-Jan-25 09:33N 36°11' W 005°24'0 0.0
2015-Jan-25 08:33N 36°11' W 005°24'0 0.0
2015-Jan-25 07:31N 36°11' W 005°24'0 0.0
2015-Jan-25 06:29N 36°11' W 005°24'0 0.0
2015-Jan-25 05:33N 36°11' W 005°24'0 0.0
2015-Jan-25 04:33N 36°11' W 005°24'0 0.0
2015-Jan-25 03:33N 36°11' W 005°24'1 0.6
2015-Jan-25 02:33N 36°10' W 005°23'0 0.0
2015-Jan-24 22:25N 36°10' W 005°23'0 0.0
2015-Jan-24 21:33N 36°10' W 005°23'0 0.1
2015-Jan-24 20:30N 36°10' W 005°23'0 0.1
2015-Jan-24 19:25N 36°10' W 005°23'1 0.5
2015-Jan-24 18:08N 36°10' W 005°24'4 7.5
2015-Jan-24 17:33N 36°06' W 005°24'0 0.1
2015-Jan-24 16:33N 36°06' W 005°24'0 0.0
2015-Jan-24 15:33N 36°06' W 005°24'0 0.0
2015-Jan-24 14:33N 36°06' W 005°24'0 0.0
2015-Jan-24 13:33N 36°06' W 005°24'0 0.0
2015-Jan-24 12:33N 36°06' W 005°24'0 0.0
2015-Jan-24 11:33N 36°06' W 005°24'0 0.2
2015-Jan-24 10:33N 36°05' W 005°24'0 0.0
2015-Jan-24 09:33N 36°05' W 005°24'1 0.8
2015-Jan-24 08:32N 36°05' W 005°25'0 0.0
2015-Jan-24 07:32N 36°05' W 005°25'0 0.0
2015-Jan-24 06:33N 36°05' W 005°25'0 0.2
2015-Jan-24 05:32N 36°05' W 005°25'0 0.0
2015-Jan-24 04:19N 36°05' W 005°25'0 0.0
2015-Jan-24 03:10N 36°05' W 005°25'0 0.1
2015-Jan-24 02:30N 36°05' W 005°25'0 0.1
2015-Jan-24 00:29N 36°05' W 005°25'0 0.0
2015-Jan-23 23:21N 36°05' W 005°25'0 0.0
2015-Jan-23 22:21N 36°05' W 005°25'0 0.0
2015-Jan-23 21:28N 36°05' W 005°25'2 2.7
2015-Jan-23 20:33N 36°08' W 005°25'2 0.3
2015-Jan-23 15:31N 36°09' W 005°25'4 4.3
2015-Jan-23 14:32N 36°05' W 005°25'0 0.1
2015-Jan-23 13:20N 36°05' W 005°25'0 0.0
2015-Jan-23 11:28N 36°05' W 005°25'0 0.0
2015-Jan-23 10:28N 36°05' W 005°25'0 0.2
2015-Jan-23 09:33N 36°05' W 005°25'3 2.9
2015-Jan-23 08:21N 36°09' W 005°26'0 0.0
2015-Jan-23 07:30N 36°09' W 005°26'3 2.6
2015-Jan-23 06:32N 36°06' W 005°25'0 0.2
2015-Jan-23 05:33N 36°06' W 005°25'0 0.0
2015-Jan-23 04:33N 36°06' W 005°25'0 0.0
2015-Jan-23 03:32N 36°06' W 005°25'0 0.1
2015-Jan-23 02:33N 36°06' W 005°25'2 1.8
2015-Jan-23 01:33N 36°08' W 005°25'1 0.1
2015-Jan-22 19:24N 36°09' W 005°26'0 0.0
2015-Jan-22 12:12N 36°09' W 005°26'0 0.0
2015-Jan-22 11:32N 36°09' W 005°26'0 0.0
2015-Jan-22 10:12N 36°09' W 005°26'0 0.0
2015-Jan-22 09:33N 36°09' W 005°26'0 0.0
2015-Jan-22 08:29N 36°09' W 005°26'0 0.0
2015-Jan-22 06:33N 36°09' W 005°26'0 0.0
2015-Jan-22 05:33N 36°09' W 005°26'3 3.0
2015-Jan-22 04:33N 36°06' W 005°24'0 0.1
2015-Jan-22 03:33N 36°06' W 005°24'0 0.1
2015-Jan-22 02:33N 36°06' W 005°24'0 0.1
2015-Jan-22 01:33N 36°06' W 005°24'0 0.1
2015-Jan-22 00:32N 36°06' W 005°24'0 0.1
2015-Jan-21 23:33N 36°06' W 005°24'0 0.1
2015-Jan-21 22:50N 36°06' W 005°24'0 0.1
2015-Jan-21 22:46N 36°06' W 005°24'0 0.1
2015-Jan-21 22:33N 36°06' W 005°24'0 0.0
2015-Jan-21 21:33N 36°06' W 005°24'2 1.6
2015-Jan-21 20:30N 36°07' W 005°25'2 0.4
2015-Jan-21 16:16N 36°09' W 005°26'0 0.0
2015-Jan-21 14:32N 36°09' W 005°26'0 0.0
2015-Jan-21 09:25N 36°09' W 005°26'0 0.0
2015-Jan-21 08:21N 36°09' W 005°26'2 2.0
2015-Jan-21 07:08N 36°11' W 005°24'0 0.0
2015-Jan-21 06:32N 36°11' W 005°24'0 0.0
2015-Jan-21 05:27N 36°11' W 005°24'0 0.0
2015-Jan-21 04:32N 36°11' W 005°24'0 0.0
2015-Jan-21 03:33N 36°11' W 005°24'0 0.0
2015-Jan-21 02:33N 36°11' W 005°24'0 0.0
2015-Jan-21 01:32N 36°11' W 005°24'0 0.4
2015-Jan-21 00:33N 36°10' W 005°24'4 1.7
2015-Jan-20 22:32N 36°07' W 005°24'0 0.0
2015-Jan-20 21:08N 36°07' W 005°24'2 0.5
2015-Jan-20 17:07N 36°05' W 005°25'0 0.0
2015-Jan-20 16:32N 36°05' W 005°25'0 0.2
2015-Jan-20 15:33N 36°05' W 005°25'0 0.1
2015-Jan-20 14:33N 36°05' W 005°25'0 0.0
2015-Jan-20 13:31N 36°05' W 005°25'0 0.0
2015-Jan-20 12:32N 36°05' W 005°25'0 0.1
2015-Jan-20 11:33N 36°05' W 005°25'0 0.1
2015-Jan-20 10:25N 36°05' W 005°25'6 1.4
2015-Jan-20 06:30N 36°11' W 005°24'0 0.0
2015-Jan-20 05:28N 36°11' W 005°24'0 0.0
2015-Jan-20 04:11N 36°11' W 005°24'0 0.0
2015-Jan-20 03:13N 36°11' W 005°24'0 0.0
2015-Jan-20 02:20N 36°11' W 005°24'0 0.0
2015-Jan-20 01:26N 36°11' W 005°24'0 0.0
2015-Jan-20 00:21N 36°11' W 005°24'0 0.0
2015-Jan-19 23:30N 36°11' W 005°24'0 0.0
2015-Jan-19 22:33N 36°11' W 005°24'0 0.0
2015-Jan-19 21:33N 36°11' W 005°24'0 0.0
2015-Jan-19 20:32N 36°11' W 005°24'0 0.0
2015-Jan-19 19:32N 36°11' W 005°24'2 1.3
2015-Jan-19 17:33N 36°09' W 005°26'0 0.0
2015-Jan-19 16:33N 36°09' W 005°26'  
2015-Jan-16 03:32N 36°09' W 005°26'0 0.0
2015-Jan-16 01:15N 36°09' W 005°26'1 0.3
2015-Jan-15 23:33N 36°08' W 005°26'0 0.0
2015-Jan-15 22:33N 36°08' W 005°26'0 0.5
2015-Jan-15 21:33N 36°09' W 005°26'0 0.0
2015-Jan-15 20:33N 36°09' W 005°26'  

Dump ship's entire track history